Aktuální počasí v Česku a ve světě - METAR

Seznam meteostanic umístěných nejčasteji na letišti v ČR a ve světě

Vyhledat místa podle abecedy:
A B C D E F G H I J K L M N O P Q R S T U V W X Y Z

Filtrovat:

ID stanice:
a/nebo
Název místa (fulltext):
 
Místo (ID)Naposledy načteno 
Gaborone (FBSK) 18.06.2021 08:00 UTC Zobrazit METAR
FBSK 180800Z VRB02KT CAVOK 19/M00 Q1028 NOSIG
Gaza (LVGZ) Zatím nenačteno  
Geneva (LSGG) 18.06.2021 07:50 UTC Zobrazit METAR
LSGG 180750Z VRB02KT 9999 FEW025 23/19 Q1016 NOSIG
George Town (MWCR) 18.06.2021 03:00 UTC Zobrazit METAR
MWCR 180300Z 09008KT 9999 FEW025 28/24 Q1014
Georgetown (SYCJ) 18.06.2021 03:00 UTC Zobrazit METAR
SYCJ 180300Z VRB02KT 9000 -SHRA FEW014 SCT090 24/24 Q1015 NOSIG
Gibraltar (LXGB) 18.06.2021 07:45 UTC Zobrazit METAR
LXGB 180745Z 23006KT 9999 FEW022 BKN045 21/16 Q1014 NOSIG RMK BLU BLU
Glasgow (EGPF) 18.06.2021 01:50 UTC Zobrazit METAR
EGPF 180150Z AUTO 24006KT 9999 FEW024 07/05 Q1019
Gomel (UMGG) 30.08.2014 17:00 UTC Zobrazit METAR
UMGG 301700Z CAVOK 19/10 Q1017 R28/CLRD// NOSIG
Goteborg (ESGG) 18.06.2021 07:50 UTC Zobrazit METAR
ESGG 180750Z 23008KT CAVOK 22/17 Q1014
Grand Turk Island (MBGT) 17.06.2021 23:00 UTC Zobrazit METAR
MBGT 172300Z 08011KT 9999 SCT015 28/23 Q1016
Graz (LOWG) 18.06.2021 07:50 UTC Zobrazit METAR
LOWG 180750Z VRB03KT 9999 FEW060 24/15 Q1018 NOSIG
Grodno (UMMG) Zatím nenačteno  
Guatemala City (MGGT) 18.06.2021 08:00 UTC Zobrazit METAR
MGGT 180800Z 18004KT 7000 FEW004 BKN012 18/18 Q1020 A3012 SCT090 BR
Reklama

Reklama


Newslettter

Počasí na Váš email

Emaily jsou bez reklamy a bez spamu



Odhlásit newsletter



Kontaktujte nás

Kontaktujte Slunečno.cz

Kontaktujte provozovatele Slunecno.cz

Další české internetové stránky (nejen) o počasí najdete v katalogu TOPlist - weby o počasí nebo vyhledejte na internetu, co jste tu na Počasí Slunečno Slunečnu zatím nenašli:
Přidat mezzi oblíbené stránkyPřidat Slunečno.cz do oblíbených | Nastavit jako HOMEPAGENastavit Slunečno.cz jako HOMEPAGE

Posunout stránku nahoru Posunout stránku nahoru Posunout stránku nahoru
Reklama